sensor_id;sensor_type;location;lat;lon;timestamp;temperature;humidity
47861;HTU21D;33620;52.340;5.984;2023-10-08T00:01:52;18.77;87.19
47861;HTU21D;33620;52.340;5.984;2023-10-08T00:04:21;18.73;87.41
47861;HTU21D;33620;52.340;5.984;2023-10-08T00:06:46;18.71;87.48
47861;HTU21D;33620;52.340;5.984;2023-10-08T00:09:12;18.72;87.54
47861;HTU21D;33620;52.340;5.984;2023-10-08T00:11:39;18.71;87.59
47861;HTU21D;33620;52.340;5.984;2023-10-08T00:14:06;18.73;87.61
47861;HTU21D;33620;52.340;5.984;2023-10-08T00:16:34;18.77;87.57
47861;HTU21D;33620;52.340;5.984;2023-10-08T00:19:00;18.76;87.52
47861;HTU21D;33620;52.340;5.984;2023-10-08T00:21:33;18.74;87.58
47861;HTU21D;33620;52.340;5.984;2023-10-08T00:24:00;18.73;87.58
47861;HTU21D;33620;52.340;5.984;2023-10-08T00:26:28;18.71;87.77
47861;HTU21D;33620;52.340;5.984;2023-10-08T00:29:01;18.72;87.83
47861;HTU21D;33620;52.340;5.984;2023-10-08T00:31:34;18.72;87.77
47861;HTU21D;33620;52.340;5.984;2023-10-08T00:34:04;18.71;87.77
47861;HTU21D;33620;52.340;5.984;2023-10-08T00:36:40;18.72;87.77
47861;HTU21D;33620;52.340;5.984;2023-10-08T00:39:07;18.73;87.73
47861;HTU21D;33620;52.340;5.984;2023-10-08T00:41:38;18.76;87.67
47861;HTU21D;33620;52.340;5.984;2023-10-08T00:44:07;18.76;87.63
47861;HTU21D;33620;52.340;5.984;2023-10-08T00:46:33;18.77;87.57
47861;HTU21D;33620;52.340;5.984;2023-10-08T00:49:02;18.79;87.48
47861;HTU21D;33620;52.340;5.984;2023-10-08T00:51:52;18.80;87.41
47861;HTU21D;33620;52.340;5.984;2023-10-08T00:54:26;18.83;87.26
47861;HTU21D;33620;52.340;5.984;2023-10-08T00:56:58;18.86;87.06
47861;HTU21D;33620;52.340;5.984;2023-10-08T00:59:24;18.86;86.90
47861;HTU21D;33620;52.340;5.984;2023-10-08T01:01:58;18.85;86.90
47861;HTU21D;33620;52.340;5.984;2023-10-08T01:04:31;18.85;86.93
47861;HTU21D;33620;52.340;5.984;2023-10-08T01:07:01;18.85;86.94
47861;HTU21D;33620;52.340;5.984;2023-10-08T01:09:35;18.83;86.91
47861;HTU21D;33620;52.340;5.984;2023-10-08T01:12:13;18.83;87.03
47861;HTU21D;33620;52.340;5.984;2023-10-08T01:14:40;18.82;87.03
47861;HTU21D;33620;52.340;5.984;2023-10-08T01:17:08;18.82;87.13
47861;HTU21D;33620;52.340;5.984;2023-10-08T01:19:34;18.81;87.09
47861;HTU21D;33620;52.340;5.984;2023-10-08T01:22:07;18.80;87.25
47861;HTU21D;33620;52.340;5.984;2023-10-08T01:24:32;18.79;87.25
47861;HTU21D;33620;52.340;5.984;2023-10-08T01:27:00;18.77;87.25
47861;HTU21D;33620;52.340;5.984;2023-10-08T01:29:29;18.74;87.43
47861;HTU21D;33620;52.340;5.984;2023-10-08T01:31:57;18.76;87.52
47861;HTU21D;33620;52.340;5.984;2023-10-08T01:34:23;18.73;87.61
47861;HTU21D;33620;52.340;5.984;2023-10-08T01:37:01;18.71;87.87
47861;HTU21D;33620;52.340;5.984;2023-10-08T01:39:30;18.68;88.00
47861;HTU21D;33620;52.340;5.984;2023-10-08T01:41:57;18.67;88.10
47861;HTU21D;33620;52.340;5.984;2023-10-08T01:44:22;18.64;88.12
47861;HTU21D;33620;52.340;5.984;2023-10-08T01:46:49;18.63;88.11
47861;HTU21D;33620;52.340;5.984;2023-10-08T01:49:15;18.59;88.27
47861;HTU21D;33620;52.340;5.984;2023-10-08T01:51:41;18.58;88.31
47861;HTU21D;33620;52.340;5.984;2023-10-08T01:54:12;18.54;88.43
47861;HTU21D;33620;52.340;5.984;2023-10-08T01:56:41;18.53;88.47
47861;HTU21D;33620;52.340;5.984;2023-10-08T01:59:08;18.49;88.83
47861;HTU21D;33620;52.340;5.984;2023-10-08T02:01:34;18.49;88.76
47861;HTU21D;33620;52.340;5.984;2023-10-08T02:04:00;18.50;88.86
47861;HTU21D;33620;52.340;5.984;2023-10-08T02:06:27;18.51;88.73
47861;HTU21D;33620;52.340;5.984;2023-10-08T02:08:52;18.49;88.91
47861;HTU21D;33620;52.340;5.984;2023-10-08T02:11:18;18.49;88.93
47861;HTU21D;33620;52.340;5.984;2023-10-08T02:13:45;18.48;89.09
47861;HTU21D;33620;52.340;5.984;2023-10-08T02:16:18;18.47;88.93
47861;HTU21D;33620;52.340;5.984;2023-10-08T02:18:43;18.46;88.77
47861;HTU21D;33620;52.340;5.984;2023-10-08T02:21:09;18.43;88.62
47861;HTU21D;33620;52.340;5.984;2023-10-08T02:23:35;18.42;88.70
47861;HTU21D;33620;52.340;5.984;2023-10-08T02:26:01;18.41;88.37
47861;HTU21D;33620;52.340;5.984;2023-10-08T02:28:27;18.27;86.93
47861;HTU21D;33620;52.340;5.984;2023-10-08T02:30:53;18.12;85.63
47861;HTU21D;33620;52.340;5.984;2023-10-08T02:33:19;17.88;84.61
47861;HTU21D;33620;52.340;5.984;2023-10-08T02:35:46;17.67;84.57
47861;HTU21D;33620;52.340;5.984;2023-10-08T02:38:13;17.46;84.90
47861;HTU21D;33620;52.340;5.984;2023-10-08T02:40:39;17.40;85.24
47861;HTU21D;33620;52.340;5.984;2023-10-08T02:43:10;17.30;85.26
47861;HTU21D;33620;52.340;5.984;2023-10-08T02:45:37;17.23;85.56
47861;HTU21D;33620;52.340;5.984;2023-10-08T02:48:05;17.18;85.49
47861;HTU21D;33620;52.340;5.984;2023-10-08T02:50:40;17.06;84.61
47861;HTU21D;33620;52.340;5.984;2023-10-08T02:53:09;16.98;84.50
47861;HTU21D;33620;52.340;5.984;2023-10-08T02:55:40;16.90;83.93
47861;HTU21D;33620;52.340;5.984;2023-10-08T02:58:18;16.82;83.71
47861;HTU21D;33620;52.340;5.984;2023-10-08T03:00:47;16.75;83.54
47861;HTU21D;33620;52.340;5.984;2023-10-08T03:03:14;16.74;83.97
47861;HTU21D;33620;52.340;5.984;2023-10-08T03:05:48;16.72;83.81
47861;HTU21D;33620;52.340;5.984;2023-10-08T03:08:15;16.64;83.55
47861;HTU21D;33620;52.340;5.984;2023-10-08T03:10:51;16.57;83.78
47861;HTU21D;33620;52.340;5.984;2023-10-08T03:13:28;16.54;84.27
47861;HTU21D;33620;52.340;5.984;2023-10-08T03:15:53;16.51;84.18
47861;HTU21D;33620;52.340;5.984;2023-10-08T03:18:28;16.47;83.70
47861;HTU21D;33620;52.340;5.984;2023-10-08T03:21:01;16.35;83.42
47861;HTU21D;33620;52.340;5.984;2023-10-08T03:23:30;16.31;83.67
47861;HTU21D;33620;52.340;5.984;2023-10-08T03:26:00;16.32;84.00
47861;HTU21D;33620;52.340;5.984;2023-10-08T03:28:34;16.35;83.82
47861;HTU21D;33620;52.340;5.984;2023-10-08T03:31:00;16.31;83.61
47861;HTU21D;33620;52.340;5.984;2023-10-08T03:33:39;16.25;83.67
47861;HTU21D;33620;52.340;5.984;2023-10-08T03:36:06;16.22;83.65
47861;HTU21D;33620;52.340;5.984;2023-10-08T03:38:37;16.19;83.67
47861;HTU21D;33620;52.340;5.984;2023-10-08T03:41:17;16.13;83.51
47861;HTU21D;33620;52.340;5.984;2023-10-08T03:43:44;16.07;83.64
47861;HTU21D;33620;52.340;5.984;2023-10-08T03:46:19;16.04;83.72
47861;HTU21D;33620;52.340;5.984;2023-10-08T03:48:46;16.03;83.71
47861;HTU21D;33620;52.340;5.984;2023-10-08T03:51:15;16.04;83.64
47861;HTU21D;33620;52.340;5.984;2023-10-08T03:53:45;16.04;83.68
47861;HTU21D;33620;52.340;5.984;2023-10-08T03:56:46;16.04;83.47
47861;HTU21D;33620;52.340;5.984;2023-10-08T03:59:17;16.07;83.48
47861;HTU21D;33620;52.340;5.984;2023-10-08T04:02:00;16.08;83.16
47861;HTU21D;33620;52.340;5.984;2023-10-08T04:04:43;16.10;83.13
47861;HTU21D;33620;52.340;5.984;2023-10-08T04:07:24;16.10;82.85
47861;HTU21D;33620;52.340;5.984;2023-10-08T04:09:50;16.06;82.81
47861;HTU21D;33620;52.340;5.984;2023-10-08T04:12:20;16.05;83.04
47861;HTU21D;33620;52.340;5.984;2023-10-08T04:14:46;16.06;83.13
47861;HTU21D;33620;52.340;5.984;2023-10-08T04:17:11;16.08;83.04
47861;HTU21D;33620;52.340;5.984;2023-10-08T04:19:36;16.05;83.18
47861;HTU21D;33620;52.340;5.984;2023-10-08T04:22:02;16.04;83.16
47861;HTU21D;33620;52.340;5.984;2023-10-08T04:24:28;16.04;83.36
47861;HTU21D;33620;52.340;5.984;2023-10-08T04:26:55;16.02;83.10
47861;HTU21D;33620;52.340;5.984;2023-10-08T04:29:24;15.99;83.27
47861;HTU21D;33620;52.340;5.984;2023-10-08T04:31:50;15.99;83.42
47861;HTU21D;33620;52.340;5.984;2023-10-08T04:34:27;15.99;83.85
47861;HTU21D;33620;52.340;5.984;2023-10-08T04:36:53;15.98;83.81
47861;HTU21D;33620;52.340;5.984;2023-10-08T04:39:29;15.97;84.30
47861;HTU21D;33620;52.340;5.984;2023-10-08T04:42:00;15.98;84.31
47861;HTU21D;33620;52.340;5.984;2023-10-08T04:44:37;16.00;84.18
47861;HTU21D;33620;52.340;5.984;2023-10-08T04:47:05;16.03;83.99
47861;HTU21D;33620;52.340;5.984;2023-10-08T04:49:32;16.03;83.78
47861;HTU21D;33620;52.340;5.984;2023-10-08T04:52:06;16.04;83.50
47861;HTU21D;33620;52.340;5.984;2023-10-08T04:54:40;16.00;83.42
47861;HTU21D;33620;52.340;5.984;2023-10-08T04:57:07;16.01;83.58
47861;HTU21D;33620;52.340;5.984;2023-10-08T04:59:41;16.01;83.74
47861;HTU21D;33620;52.340;5.984;2023-10-08T05:02:07;16.01;84.05
47861;HTU21D;33620;52.340;5.984;2023-10-08T05:05:00;16.02;83.96
47861;HTU21D;33620;52.340;5.984;2023-10-08T05:07:34;16.02;83.72
47861;HTU21D;33620;52.340;5.984;2023-10-08T05:10:13;16.02;83.63
47861;HTU21D;33620;52.340;5.984;2023-10-08T05:12:52;16.03;83.75
47861;HTU21D;33620;52.340;5.984;2023-10-08T05:15:31;16.03;83.68
47861;HTU21D;33620;52.340;5.984;2023-10-08T05:18:31;16.01;83.78
47861;HTU21D;33620;52.340;5.984;2023-10-08T05:21:15;16.00;83.77
47861;HTU21D;33620;52.340;5.984;2023-10-08T05:24:03;16.00;83.81
47861;HTU21D;33620;52.340;5.984;2023-10-08T05:26:41;15.99;83.93
47861;HTU21D;33620;52.340;5.984;2023-10-08T05:29:08;15.98;84.03
47861;HTU21D;33620;52.340;5.984;2023-10-08T05:31:53;15.98;84.16
47861;HTU21D;33620;52.340;5.984;2023-10-08T05:34:38;15.93;84.00
47861;HTU21D;33620;52.340;5.984;2023-10-08T05:37:16;15.95;84.03
47861;HTU21D;33620;52.340;5.984;2023-10-08T05:39:58;15.92;84.11
47861;HTU21D;33620;52.340;5.984;2023-10-08T05:42:37;15.90;84.02
47861;HTU21D;33620;52.340;5.984;2023-10-08T05:45:11;15.87;83.96
47861;HTU21D;33620;52.340;5.984;2023-10-08T05:47:37;15.81;84.19
47861;HTU21D;33620;52.340;5.984;2023-10-08T05:50:03;15.81;84.35
47861;HTU21D;33620;52.340;5.984;2023-10-08T05:52:55;15.80;84.45
47861;HTU21D;33620;52.340;5.984;2023-10-08T05:55:23;15.78;84.83
47861;HTU21D;33620;52.340;5.984;2023-10-08T05:57:53;15.77;84.66
47861;HTU21D;33620;52.340;5.984;2023-10-08T06:00:30;15.76;84.68
47861;HTU21D;33620;52.340;5.984;2023-10-08T06:03:12;15.73;84.50
47861;HTU21D;33620;52.340;5.984;2023-10-08T06:06:04;15.70;84.57
47861;HTU21D;33620;52.340;5.984;2023-10-08T06:08:50;15.69;84.80
47861;HTU21D;33620;52.340;5.984;2023-10-08T06:11:38;15.70;84.80
47861;HTU21D;33620;52.340;5.984;2023-10-08T06:14:10;15.71;84.94
47861;HTU21D;33620;52.340;5.984;2023-10-08T06:16:45;15.72;85.00
47861;HTU21D;33620;52.340;5.984;2023-10-08T06:19:13;15.70;84.62
47861;HTU21D;33620;52.340;5.984;2023-10-08T06:21:42;15.67;84.65
47861;HTU21D;33620;52.340;5.984;2023-10-08T06:24:08;15.67;84.94
47861;HTU21D;33620;52.340;5.984;2023-10-08T06:26:40;15.66;84.84
47861;HTU21D;33620;52.340;5.984;2023-10-08T06:29:09;15.63;84.77
47861;HTU21D;33620;52.340;5.984;2023-10-08T06:31:45;15.62;84.91
47861;HTU21D;33620;52.340;5.984;2023-10-08T06:34:16;15.60;85.00
47861;HTU21D;33620;52.340;5.984;2023-10-08T06:36:41;15.61;84.97
47861;HTU21D;33620;52.340;5.984;2023-10-08T06:39:07;15.60;85.12
47861;HTU21D;33620;52.340;5.984;2023-10-08T06:41:37;15.62;85.16
47861;HTU21D;33620;52.340;5.984;2023-10-08T06:44:02;15.66;85.16
47861;HTU21D;33620;52.340;5.984;2023-10-08T06:46:29;15.66;85.09
47861;HTU21D;33620;52.340;5.984;2023-10-08T06:48:58;15.65;85.63
47861;HTU21D;33620;52.340;5.984;2023-10-08T06:51:23;15.66;85.51
47861;HTU21D;33620;52.340;5.984;2023-10-08T06:53:51;15.65;85.48
47861;HTU21D;33620;52.340;5.984;2023-10-08T06:56:17;15.62;85.97
47861;HTU21D;33620;52.340;5.984;2023-10-08T06:58:45;15.66;85.96
47861;HTU21D;33620;52.340;5.984;2023-10-08T07:01:16;15.69;85.57
47861;HTU21D;33620;52.340;5.984;2023-10-08T07:03:50;15.68;85.47
47861;HTU21D;33620;52.340;5.984;2023-10-08T07:06:17;15.71;85.17
47861;HTU21D;33620;52.340;5.984;2023-10-08T07:08:51;15.71;85.04
47861;HTU21D;33620;52.340;5.984;2023-10-08T07:11:20;15.66;84.78
47861;HTU21D;33620;52.340;5.984;2023-10-08T07:13:46;15.65;84.97
47861;HTU21D;33620;52.340;5.984;2023-10-08T07:16:11;15.66;85.06
47861;HTU21D;33620;52.340;5.984;2023-10-08T07:18:39;15.67;85.10
47861;HTU21D;33620;52.340;5.984;2023-10-08T07:21:07;15.67;85.06
47861;HTU21D;33620;52.340;5.984;2023-10-08T07:23:39;15.69;84.93
47861;HTU21D;33620;52.340;5.984;2023-10-08T07:26:28;15.67;84.93
47861;HTU21D;33620;52.340;5.984;2023-10-08T07:29:02;15.65;84.74
47861;HTU21D;33620;52.340;5.984;2023-10-08T07:31:34;15.61;84.69
47861;HTU21D;33620;52.340;5.984;2023-10-08T07:34:02;15.63;84.95
47861;HTU21D;33620;52.340;5.984;2023-10-08T07:37:05;15.66;84.96
47861;HTU21D;33620;52.340;5.984;2023-10-08T07:39:31;15.68;85.00
47861;HTU21D;33620;52.340;5.984;2023-10-08T07:41:58;15.70;84.83
47861;HTU21D;33620;52.340;5.984;2023-10-08T07:44:25;15.69;84.87
47861;HTU21D;33620;52.340;5.984;2023-10-08T07:46:52;15.72;84.89
47861;HTU21D;33620;52.340;5.984;2023-10-08T07:49:20;15.74;84.93
47861;HTU21D;33620;52.340;5.984;2023-10-08T07:51:45;15.74;84.66
47861;HTU21D;33620;52.340;5.984;2023-10-08T07:54:24;15.74;84.53
47861;HTU21D;33620;52.340;5.984;2023-10-08T07:56:50;15.74;84.34
47861;HTU21D;33620;52.340;5.984;2023-10-08T07:59:22;15.74;84.64
47861;HTU21D;33620;52.340;5.984;2023-10-08T08:01:48;15.80;84.60
47861;HTU21D;33620;52.340;5.984;2023-10-08T08:04:13;15.83;84.42
47861;HTU21D;33620;52.340;5.984;2023-10-08T08:06:51;15.81;84.24
47861;HTU21D;33620;52.340;5.984;2023-10-08T08:09:19;15.82;83.88
47861;HTU21D;33620;52.340;5.984;2023-10-08T08:11:46;15.82;83.94
47861;HTU21D;33620;52.340;5.984;2023-10-08T08:14:13;15.84;84.05
47861;HTU21D;33620;52.340;5.984;2023-10-08T08:16:44;15.88;83.87
47861;HTU21D;33620;52.340;5.984;2023-10-08T08:19:13;15.92;83.37
47861;HTU21D;33620;52.340;5.984;2023-10-08T08:21:41;15.92;83.01
47861;HTU21D;33620;52.340;5.984;2023-10-08T08:24:13;15.97;82.90
47861;HTU21D;33620;52.340;5.984;2023-10-08T08:26:39;16.01;82.74
47861;HTU21D;33620;52.340;5.984;2023-10-08T08:29:06;16.02;83.19
47861;HTU21D;33620;52.340;5.984;2023-10-08T08:31:39;16.04;83.46
47861;HTU21D;33620;52.340;5.984;2023-10-08T08:34:06;16.03;82.65
47861;HTU21D;33620;52.340;5.984;2023-10-08T08:36:39;16.06;82.63
47861;HTU21D;33620;52.340;5.984;2023-10-08T08:39:10;16.08;81.70
47861;HTU21D;33620;52.340;5.984;2023-10-08T08:41:39;16.10;81.68
47861;HTU21D;33620;52.340;5.984;2023-10-08T08:44:05;16.10;81.51
47861;HTU21D;33620;52.340;5.984;2023-10-08T08:49:02;16.15;80.50
47861;HTU21D;33620;52.340;5.984;2023-10-08T08:51:29;16.21;80.75
47861;HTU21D;33620;52.340;5.984;2023-10-08T08:53:55;16.27;81.13
47861;HTU21D;33620;52.340;5.984;2023-10-08T08:56:21;16.26;80.50
47861;HTU21D;33620;52.340;5.984;2023-10-08T08:58:49;16.30;80.39
47861;HTU21D;33620;52.340;5.984;2023-10-08T09:01:16;16.31;79.88
47861;HTU21D;33620;52.340;5.984;2023-10-08T09:03:43;16.30;79.76
47861;HTU21D;33620;52.340;5.984;2023-10-08T09:06:08;16.31;79.56
47861;HTU21D;33620;52.340;5.984;2023-10-08T09:08:36;16.32;80.26
47861;HTU21D;33620;52.340;5.984;2023-10-08T09:11:02;16.33;80.39
47861;HTU21D;33620;52.340;5.984;2023-10-08T09:13:31;16.34;80.17
47861;HTU21D;33620;52.340;5.984;2023-10-08T09:16:08;16.34;80.30
47861;HTU21D;33620;52.340;5.984;2023-10-08T09:18:34;16.34;80.07
47861;HTU21D;33620;52.340;5.984;2023-10-08T09:21:11;16.34;79.59
47861;HTU21D;33620;52.340;5.984;2023-10-08T09:23:41;16.35;79.30
47861;HTU21D;33620;52.340;5.984;2023-10-08T09:26:12;16.36;79.05
47861;HTU21D;33620;52.340;5.984;2023-10-08T09:28:40;16.40;79.14
47861;HTU21D;33620;52.340;5.984;2023-10-08T09:31:10;16.45;78.74
47861;HTU21D;33620;52.340;5.984;2023-10-08T09:33:37;16.46;77.82
47861;HTU21D;33620;52.340;5.984;2023-10-08T09:36:02;16.54;78.05
47861;HTU21D;33620;52.340;5.984;2023-10-08T09:38:31;16.60;77.92
47861;HTU21D;33620;52.340;5.984;2023-10-08T09:40:58;16.64;78.21
47861;HTU21D;33620;52.340;5.984;2023-10-08T09:43:26;16.69;78.23
47861;HTU21D;33620;52.340;5.984;2023-10-08T09:45:58;16.72;77.92
47861;HTU21D;33620;52.340;5.984;2023-10-08T09:48:26;16.75;77.53
47861;HTU21D;33620;52.340;5.984;2023-10-08T09:50:54;16.74;76.34
47861;HTU21D;33620;52.340;5.984;2023-10-08T09:53:39;16.78;76.74
47861;HTU21D;33620;52.340;5.984;2023-10-08T09:56:18;16.82;76.60
47861;HTU21D;33620;52.340;5.984;2023-10-08T09:58:46;16.86;76.70
47861;HTU21D;33620;52.340;5.984;2023-10-08T10:01:14;16.91;76.58
47861;HTU21D;33620;52.340;5.984;2023-10-08T10:03:42;16.92;76.12
47861;HTU21D;33620;52.340;5.984;2023-10-08T10:06:12;16.95;75.50
47861;HTU21D;33620;52.340;5.984;2023-10-08T10:08:41;16.95;74.99
47861;HTU21D;33620;52.340;5.984;2023-10-08T10:11:06;16.96;75.13
47861;HTU21D;33620;52.340;5.984;2023-10-08T10:13:43;16.94;74.94
47861;HTU21D;33620;52.340;5.984;2023-10-08T10:16:17;16.92;75.63
47861;HTU21D;33620;52.340;5.984;2023-10-08T10:18:44;16.92;75.92
47861;HTU21D;33620;52.340;5.984;2023-10-08T10:23:43;16.99;75.57
47861;HTU21D;33620;52.340;5.984;2023-10-08T10:26:29;17.00;74.76
47861;HTU21D;33620;52.340;5.984;2023-10-08T10:31:40;17.02;74.92
47861;HTU21D;33620;52.340;5.984;2023-10-08T10:34:15;17.09;74.21
47861;HTU21D;33620;52.340;5.984;2023-10-08T10:36:45;17.17;74.51
47861;HTU21D;33620;52.340;5.984;2023-10-08T10:39:16;17.23;74.16
47861;HTU21D;33620;52.340;5.984;2023-10-08T10:41:46;17.30;74.15
47861;HTU21D;33620;52.340;5.984;2023-10-08T10:44:12;17.39;74.56
47861;HTU21D;33620;52.340;5.984;2023-10-08T10:46:43;17.43;73.90
47861;HTU21D;33620;52.340;5.984;2023-10-08T10:49:09;17.47;74.06
47861;HTU21D;33620;52.340;5.984;2023-10-08T10:51:50;17.46;73.76
47861;HTU21D;33620;52.340;5.984;2023-10-08T10:54:25;17.38;73.66
47861;HTU21D;33620;52.340;5.984;2023-10-08T10:56:52;17.35;73.88
47861;HTU21D;33620;52.340;5.984;2023-10-08T10:59:31;17.36;72.95
47861;HTU21D;33620;52.340;5.984;2023-10-08T11:02:06;17.45;72.93
47861;HTU21D;33620;52.340;5.984;2023-10-08T11:04:47;17.48;72.70
47861;HTU21D;33620;52.340;5.984;2023-10-08T11:07:18;17.61;72.74
47861;HTU21D;33620;52.340;5.984;2023-10-08T11:09:46;17.69;71.71
47861;HTU21D;33620;52.340;5.984;2023-10-08T11:12:13;17.79;71.52
47861;HTU21D;33620;52.340;5.984;2023-10-08T11:14:46;17.89;71.43
47861;HTU21D;33620;52.340;5.984;2023-10-08T11:17:13;17.95;70.94
47861;HTU21D;33620;52.340;5.984;2023-10-08T11:19:41;18.04;71.26
47861;HTU21D;33620;52.340;5.984;2023-10-08T11:22:08;18.04;71.28
47861;HTU21D;33620;52.340;5.984;2023-10-08T11:24:41;18.04;71.30
47861;HTU21D;33620;52.340;5.984;2023-10-08T11:27:08;17.99;70.59
47861;HTU21D;33620;52.340;5.984;2023-10-08T11:29:47;17.95;70.38
47861;HTU21D;33620;52.340;5.984;2023-10-08T11:32:14;17.92;70.81
47861;HTU21D;33620;52.340;5.984;2023-10-08T11:34:46;17.90;71.10
47861;HTU21D;33620;52.340;5.984;2023-10-08T11:37:26;17.89;70.85
47861;HTU21D;33620;52.340;5.984;2023-10-08T11:39:51;17.89;71.14
47861;HTU21D;33620;52.340;5.984;2023-10-08T11:42:18;17.85;70.60
47861;HTU21D;33620;52.340;5.984;2023-10-08T11:45:02;17.88;70.90
47861;HTU21D;33620;52.340;5.984;2023-10-08T11:47:53;17.93;71.34
47861;HTU21D;33620;52.340;5.984;2023-10-08T11:50:25;18.08;72.19
47861;HTU21D;33620;52.340;5.984;2023-10-08T11:53:00;18.21;72.87
47861;HTU21D;33620;52.340;5.984;2023-10-08T11:55:29;18.37;72.33
47861;HTU21D;33620;52.340;5.984;2023-10-08T11:57:55;18.44;71.86
47861;HTU21D;33620;52.340;5.984;2023-10-08T12:00:21;18.53;72.01
47861;HTU21D;33620;52.340;5.984;2023-10-08T12:02:51;18.59;71.39
47861;HTU21D;33620;52.340;5.984;2023-10-08T12:05:21;18.57;70.23
47861;HTU21D;33620;52.340;5.984;2023-10-08T12:07:51;18.62;69.65
47861;HTU21D;33620;52.340;5.984;2023-10-08T12:10:20;18.70;69.62
47861;HTU21D;33620;52.340;5.984;2023-10-08T12:12:50;18.73;69.78
47861;HTU21D;33620;52.340;5.984;2023-10-08T12:15:20;18.73;69.17
47861;HTU21D;33620;52.340;5.984;2023-10-08T12:17:47;18.71;69.40
47861;HTU21D;33620;52.340;5.984;2023-10-08T12:20:35;18.73;69.38
47861;HTU21D;33620;52.340;5.984;2023-10-08T12:23:01;18.72;69.33
47861;HTU21D;33620;52.340;5.984;2023-10-08T12:25:27;18.66;69.08
47861;HTU21D;33620;52.340;5.984;2023-10-08T12:27:53;18.63;69.21
47861;HTU21D;33620;52.340;5.984;2023-10-08T12:30:18;18.59;70.22
47861;HTU21D;33620;52.340;5.984;2023-10-08T12:32:44;18.51;70.45
47861;HTU21D;33620;52.340;5.984;2023-10-08T12:35:11;18.48;71.03
47861;HTU21D;33620;52.340;5.984;2023-10-08T12:37:39;18.43;70.48
47861;HTU21D;33620;52.340;5.984;2023-10-08T12:40:06;18.37;70.77
47861;HTU21D;33620;52.340;5.984;2023-10-08T12:42:56;18.32;70.61
47861;HTU21D;33620;52.340;5.984;2023-10-08T12:45:24;18.27;70.93
47861;HTU21D;33620;52.340;5.984;2023-10-08T12:47:52;18.22;72.32
47861;HTU21D;33620;52.340;5.984;2023-10-08T12:50:19;18.15;72.06
47861;HTU21D;33620;52.340;5.984;2023-10-08T12:53:21;18.21;72.24
47861;HTU21D;33620;52.340;5.984;2023-10-08T12:55:54;18.33;72.22
47861;HTU21D;33620;52.340;5.984;2023-10-08T12:58:21;18.41;71.38
47861;HTU21D;33620;52.340;5.984;2023-10-08T13:00:53;18.44;71.02
47861;HTU21D;33620;52.340;5.984;2023-10-08T13:03:25;18.51;71.76
47861;HTU21D;33620;52.340;5.984;2023-10-08T13:05:56;18.48;71.56
47861;HTU21D;33620;52.340;5.984;2023-10-08T13:08:29;18.48;71.32
47861;HTU21D;33620;52.340;5.984;2023-10-08T13:10:55;18.46;71.82
47861;HTU21D;33620;52.340;5.984;2023-10-08T13:13:26;18.43;71.45
47861;HTU21D;33620;52.340;5.984;2023-10-08T13:15:51;18.47;72.22
47861;HTU21D;33620;52.340;5.984;2023-10-08T13:18:21;18.44;71.17
47861;HTU21D;33620;52.340;5.984;2023-10-08T13:20:46;18.40;71.52
47861;HTU21D;33620;52.340;5.984;2023-10-08T13:23:12;18.39;71.82
47861;HTU21D;33620;52.340;5.984;2023-10-08T13:25:38;18.40;71.80
47861;HTU21D;33620;52.340;5.984;2023-10-08T13:28:05;18.41;72.63
47861;HTU21D;33620;52.340;5.984;2023-10-08T13:30:32;18.40;72.06
47861;HTU21D;33620;52.340;5.984;2023-10-08T13:32:58;18.41;72.62
47861;HTU21D;33620;52.340;5.984;2023-10-08T13:35:25;18.39;72.78
47861;HTU21D;33620;52.340;5.984;2023-10-08T13:37:50;18.40;72.14
47861;HTU21D;33620;52.340;5.984;2023-10-08T13:40:16;18.42;72.16
47861;HTU21D;33620;52.340;5.984;2023-10-08T13:42:42;18.44;72.13
47861;HTU21D;33620;52.340;5.984;2023-10-08T13:45:08;18.52;72.24
47861;HTU21D;33620;52.340;5.984;2023-10-08T13:47:34;18.57;71.90
47861;HTU21D;33620;52.340;5.984;2023-10-08T13:50:00;18.61;71.25
47861;HTU21D;33620;52.340;5.984;2023-10-08T13:52:27;18.64;71.32
47861;HTU21D;33620;52.340;5.984;2023-10-08T13:54:53;18.61;71.00
47861;HTU21D;33620;52.340;5.984;2023-10-08T13:57:19;18.62;71.10
47861;HTU21D;33620;52.340;5.984;2023-10-08T13:59:48;18.62;71.18
47861;HTU21D;33620;52.340;5.984;2023-10-08T14:02:14;18.66;71.69
47861;HTU21D;33620;52.340;5.984;2023-10-08T14:04:43;18.68;72.00
47861;HTU21D;33620;52.340;5.984;2023-10-08T14:07:12;18.70;73.50
47861;HTU21D;33620;52.340;5.984;2023-10-08T14:09:44;18.71;73.30
47861;HTU21D;33620;52.340;5.984;2023-10-08T14:12:11;18.72;73.64
47861;HTU21D;33620;52.340;5.984;2023-10-08T14:14:38;18.70;73.24
47861;HTU21D;33620;52.340;5.984;2023-10-08T14:17:09;18.67;73.88
47861;HTU21D;33620;52.340;5.984;2023-10-08T14:19:43;18.66;74.37
47861;HTU21D;33620;52.340;5.984;2023-10-08T14:22:24;18.64;74.83
47861;HTU21D;33620;52.340;5.984;2023-10-08T14:24:50;18.61;74.39
47861;HTU21D;33620;52.340;5.984;2023-10-08T14:27:25;18.57;74.30
47861;HTU21D;33620;52.340;5.984;2023-10-08T14:29:57;18.54;74.24
47861;HTU21D;33620;52.340;5.984;2023-10-08T14:32:26;18.48;74.54
47861;HTU21D;33620;52.340;5.984;2023-10-08T14:34:52;18.43;74.02
47861;HTU21D;33620;52.340;5.984;2023-10-08T14:37:17;18.42;74.01
47861;HTU21D;33620;52.340;5.984;2023-10-08T14:40:01;18.38;74.14
47861;HTU21D;33620;52.340;5.984;2023-10-08T14:42:45;18.34;73.48
47861;HTU21D;33620;52.340;5.984;2023-10-08T14:45:30;18.36;74.41
47861;HTU21D;33620;52.340;5.984;2023-10-08T14:48:00;18.37;74.63
47861;HTU21D;33620;52.340;5.984;2023-10-08T14:50:27;18.37;74.74
47861;HTU21D;33620;52.340;5.984;2023-10-08T14:52:54;18.38;75.09
47861;HTU21D;33620;52.340;5.984;2023-10-08T14:55:21;18.36;75.25
47861;HTU21D;33620;52.340;5.984;2023-10-08T14:57:49;18.35;75.14
47861;HTU21D;33620;52.340;5.984;2023-10-08T15:00:18;18.29;74.90
47861;HTU21D;33620;52.340;5.984;2023-10-08T15:02:52;18.26;75.44
47861;HTU21D;33620;52.340;5.984;2023-10-08T15:05:20;18.23;75.60
47861;HTU21D;33620;52.340;5.984;2023-10-08T15:07:47;18.22;75.99
47861;HTU21D;33620;52.340;5.984;2023-10-08T15:10:12;18.20;75.79
47861;HTU21D;33620;52.340;5.984;2023-10-08T15:12:38;18.14;75.57
47861;HTU21D;33620;52.340;5.984;2023-10-08T15:15:04;18.08;75.82
47861;HTU21D;33620;52.340;5.984;2023-10-08T15:17:41;18.07;75.98
47861;HTU21D;33620;52.340;5.984;2023-10-08T15:20:12;18.06;76.22
47861;HTU21D;33620;52.340;5.984;2023-10-08T15:22:45;18.04;76.46
47861;HTU21D;33620;52.340;5.984;2023-10-08T15:25:11;17.99;76.50
47861;HTU21D;33620;52.340;5.984;2023-10-08T15:27:41;17.95;76.50
47861;HTU21D;33620;52.340;5.984;2023-10-08T15:30:11;17.93;76.68
47861;HTU21D;33620;52.340;5.984;2023-10-08T15:32:42;17.90;76.14
47861;HTU21D;33620;52.340;5.984;2023-10-08T15:35:15;17.87;76.92
47861;HTU21D;33620;52.340;5.984;2023-10-08T15:37:45;17.87;77.17
47861;HTU21D;33620;52.340;5.984;2023-10-08T15:40:11;17.85;77.02
47861;HTU21D;33620;52.340;5.984;2023-10-08T15:42:53;17.82;76.95
47861;HTU21D;33620;52.340;5.984;2023-10-08T15:45:20;17.81;77.15